Time;durP1;ratioP1;P1;durP2;ratioP2;P2;SDS_P1;SDS_P2;PMS_P1;PMS_P2;Temp;Humidity;BMP_temperature;BMP_pressure;BME280_temperature;BME280_humidity;BME280_pressure;Samples;Min_cycle;Max_cycle;Signal;HPM_P1;HPM_P2
2023/05/14 00:00:48;;;;;;;12.90;11.13;;;11.20;99.90;;;;;;5097474;27;20194;-73
2023/05/14 00:03:13;;;;;;;11.60;10.43;;;11.20;99.90;;;;;;5132933;27;20519;-72
2023/05/14 00:05:39;;;;;;;15.00;12.10;;;11.20;99.90;;;;;;5114113;27;20205;-74
2023/05/14 00:08:05;;;;;;;18.30;11.70;;;11.20;99.90;;;;;;5114002;27;20217;-74
2023/05/14 00:10:30;;;;;;;16.10;12.43;;;11.20;99.90;;;;;;5132781;27;20235;-75
2023/05/14 00:12:56;;;;;;;16.07;13.07;;;11.30;99.90;;;;;;5133075;27;20180;-74
2023/05/14 00:15:22;;;;;;;16.83;11.80;;;11.20;99.90;;;;;;5114572;27;20209;-73
2023/05/14 00:17:47;;;;;;;19.70;13.83;;;11.10;99.90;;;;;;5132955;27;20609;-74
2023/05/14 00:20:13;;;;;;;20.13;12.07;;;11.10;99.90;;;;;;5132838;27;20185;-75
2023/05/14 00:22:39;;;;;;;13.20;11.27;;;11.10;99.90;;;;;;5097109;27;20210;-74
2023/05/14 00:25:06;;;;;;;15.67;10.80;;;11.10;99.90;;;;;;5132453;27;20185;-74
2023/05/14 00:27:32;;;;;;;13.00;10.50;;;11.10;99.90;;;;;;5113916;27;20417;-74
2023/05/14 00:29:58;;;;;;;17.50;12.47;;;11.10;99.90;;;;;;5132194;27;20413;-74
2023/05/14 00:32:24;;;;;;;15.40;12.03;;;11.10;99.90;;;;;;5096602;27;20416;-74
2023/05/14 00:34:49;;;;;;;16.00;11.87;;;11.20;99.90;;;;;;5113263;27;20259;-74
2023/05/14 00:37:15;;;;;;;15.03;12.63;;;11.10;99.90;;;;;;5113357;27;20209;-73
2023/05/14 00:39:41;;;;;;;18.60;13.33;;;10.90;99.90;;;;;;5131845;27;20610;-73
2023/05/14 00:42:06;;;;;;;17.07;13.43;;;10.90;99.90;;;;;;5113070;27;20318;-74
2023/05/14 00:44:32;;;;;;;16.33;11.87;;;10.90;99.90;;;;;;5112735;27;20226;-73
2023/05/14 00:46:58;;;;;;;16.10;12.80;;;10.90;99.90;;;;;;5131654;27;20201;-72
2023/05/14 00:49:25;;;;;;;16.13;13.50;;;11.00;99.90;;;;;;5112832;27;20875;-73
2023/05/14 00:51:51;;;;;;;16.40;12.50;;;11.00;99.90;;;;;;5131595;27;20493;-74
2023/05/14 00:54:18;;;;;;;13.60;11.50;;;11.00;99.90;;;;;;5131510;27;20526;-74
2023/05/14 00:56:47;;;;;;;18.20;13.10;;;11.00;99.90;;;;;;5131523;27;20480;-74
2023/05/14 00:59:13;;;;;;;17.30;12.27;;;11.00;99.90;;;;;;5131604;27;20482;-74
2023/05/14 01:01:39;;;;;;;18.00;13.40;;;11.10;99.90;;;;;;5131568;27;20837;-74
2023/05/14 01:04:06;;;;;;;15.33;13.50;;;10.90;99.90;;;;;;5131474;27;20426;-74
2023/05/14 01:06:34;;;;;;;15.77;12.60;;;11.00;99.90;;;;;;5131182;27;20440;-74
2023/05/14 01:09:32;;;;;;;16.63;12.83;;;10.90;99.90;;;;;;5112567;27;20490;-74
2023/05/14 01:12:01;;;;;;;13.33;11.93;;;10.80;99.90;;;;;;5126104;27;20436;-75
2023/05/14 01:14:45;;;;;;;17.90;11.90;;;10.80;99.90;;;;;;5131358;27;20996;-74
2023/05/14 01:17:12;;;;;;;13.80;11.53;;;10.80;99.90;;;;;;5112537;27;20562;-74
2023/05/14 01:19:42;;;;;;;14.40;11.50;;;10.80;99.90;;;;;;5131563;27;20941;-74
2023/05/14 01:22:09;;;;;;;17.30;12.03;;;10.90;99.90;;;;;;5131475;27;20411;-74
2023/05/14 01:24:35;;;;;;;18.03;12.80;;;10.80;99.90;;;;;;5131158;27;20414;-74
2023/05/14 01:27:13;;;;;;;14.80;11.53;;;10.80;99.90;;;;;;5130920;27;21014;-74
2023/05/14 01:29:43;;;;;;;14.63;11.60;;;10.80;99.90;;;;;;5131029;27;20549;-74
2023/05/14 01:32:10;;;;;;;16.93;10.67;;;10.70;99.90;;;;;;5130838;27;20974;-74
2023/05/14 01:34:37;;;;;;;11.53;10.27;;;10.70;99.90;;;;;;5130742;27;20429;-73
2023/05/14 01:37:03;;;;;;;13.10;11.03;;;10.70;99.90;;;;;;5112204;27;20430;-73
2023/05/14 01:39:31;;;;;;;15.20;11.37;;;10.60;99.90;;;;;;5130658;27;20412;-73
2023/05/14 01:41:57;;;;;;;15.17;11.20;;;10.60;99.90;;;;;;5130471;27;20450;-73
2023/05/14 01:44:23;;;;;;;15.57;12.23;;;10.60;99.90;;;;;;5130420;27;20463;-73
2023/05/14 01:46:49;;;;;;;15.20;11.87;;;10.50;99.90;;;;;;5130336;27;20427;-74
2023/05/14 01:49:16;;;;;;;18.27;12.10;;;10.50;99.90;;;;;;5094933;27;20467;-73
2023/05/14 01:51:43;;;;;;;18.53;11.90;;;10.40;99.90;;;;;;5130354;27;20226;-74
2023/05/14 01:54:09;;;;;;;15.17;10.60;;;10.40;99.90;;;;;;5111615;28;20422;-74
2023/05/14 01:56:34;;;;;;;13.70;10.73;;;10.30;99.90;;;;;;5129835;27;20197;-73
2023/05/14 01:59:00;;;;;;;17.00;12.07;;;10.30;99.90;;;;;;5130267;27;20188;-74
2023/05/14 02:01:36;;;;;;;17.53;11.50;;;10.30;99.90;;;;;;5111572;27;20184;-74
2023/05/14 02:04:01;;;;;;;17.80;11.37;;;10.30;99.90;;;;;;5110573;27;20568;-74
2023/05/14 02:06:27;;;;;;;17.40;11.63;;;10.20;99.90;;;;;;5129950;27;20530;-74
2023/05/14 02:08:52;;;;;;;16.53;11.87;;;10.00;99.90;;;;;;5111489;27;20290;-74
2023/05/14 02:11:18;;;;;;;16.47;12.33;;;10.00;99.90;;;;;;5130177;27;20589;-74
2023/05/14 02:13:44;;;;;;;15.17;11.30;;;10.00;99.90;;;;;;5129996;27;20215;-74
2023/05/14 02:16:09;;;;;;;31.87;13.20;;;9.90;99.90;;;;;;5094235;27;20210;-73
2023/05/14 02:18:35;;;;;;;17.87;11.73;;;9.90;99.90;;;;;;5129846;27;20560;-74
2023/05/14 02:21:00;;;;;;;14.40;12.07;;;10.00;99.90;;;;;;5130150;27;20188;-73
2023/05/14 02:23:26;;;;;;;15.43;11.90;;;10.10;99.90;;;;;;5129819;27;20185;-74
2023/05/14 02:25:51;;;;;;;13.80;10.97;;;10.20;99.90;;;;;;5129823;27;20213;-74
2023/05/14 02:28:17;;;;;;;15.00;11.27;;;10.20;99.90;;;;;;5129726;27;20287;-74
2023/05/14 02:30:43;;;;;;;14.60;10.70;;;10.30;99.90;;;;;;5094494;27;20182;-73
2023/05/14 02:33:08;;;;;;;13.97;10.73;;;10.30;99.90;;;;;;5111100;27;20673;-73
2023/05/14 02:35:34;;;;;;;12.00;10.57;;;10.30;99.90;;;;;;5129710;27;20194;-74
2023/05/14 02:37:59;;;;;;;15.67;11.87;;;10.40;99.90;;;;;;5111450;27;20196;-74
2023/05/14 02:40:25;;;;;;;12.80;11.10;;;10.40;99.90;;;;;;5130426;27;21035;-74
2023/05/14 02:42:51;;;;;;;17.37;10.77;;;10.40;99.90;;;;;;5130310;27;20202;-74
2023/05/14 02:45:16;;;;;;;12.30;10.37;;;10.30;99.90;;;;;;5130349;27;20595;-74
2023/05/14 02:47:42;;;;;;;17.17;11.50;;;10.30;99.90;;;;;;5130341;27;20186;-75
2023/05/14 02:50:08;;;;;;;12.70;10.80;;;10.30;99.90;;;;;;5130413;27;20185;-74
2023/05/14 02:52:34;;;;;;;14.27;10.57;;;10.40;99.90;;;;;;5111715;28;20179;-74
2023/05/14 02:55:00;;;;;;;12.43;10.60;;;10.50;99.90;;;;;;5111629;28;20422;-74
2023/05/14 02:57:25;;;;;;;14.23;9.70;;;10.50;99.90;;;;;;5130221;28;20181;-74
2023/05/14 02:59:51;;;;;;;14.50;10.67;;;10.50;99.90;;;;;;5111693;28;20473;-73
2023/05/14 03:02:17;;;;;;;14.63;11.20;;;10.60;99.90;;;;;;5129829;28;20188;-73
2023/05/14 03:04:42;;;;;;;19.87;13.90;;;10.60;99.90;;;;;;5129813;28;20674;-74
2023/05/14 03:07:08;;;;;;;18.77;14.20;;;10.70;99.90;;;;;;5132204;27;20199;-73
2023/05/14 03:09:33;;;;;;;18.63;13.33;;;10.70;99.90;;;;;;5133786;27;20571;-73
2023/05/14 03:11:59;;;;;;;18.60;12.93;;;10.80;99.90;;;;;;5133870;27;20347;-73
2023/05/14 03:14:25;;;;;;;15.03;11.20;;;10.80;99.90;;;;;;5137233;27;20193;-73
2023/05/14 03:16:50;;;;;;;11.57;10.13;;;10.80;99.90;;;;;;5140333;27;20458;-73
2023/05/14 03:19:16;;;;;;;17.30;10.77;;;10.80;99.90;;;;;;5136366;27;20289;-72
2023/05/14 03:21:41;;;;;;;12.60;10.40;;;10.80;99.90;;;;;;5133871;27;20686;-73
2023/05/14 03:24:07;;;;;;;12.60;10.53;;;10.80;99.90;;;;;;5133769;27;20193;-74
2023/05/14 03:26:33;;;;;;;16.13;11.97;;;10.80;99.90;;;;;;5133326;27;20320;-74
2023/05/14 03:28:58;;;;;;;14.47;11.70;;;10.80;99.90;;;;;;5133336;27;20207;-74
2023/05/14 03:31:24;;;;;;;14.87;11.20;;;10.80;99.90;;;;;;5114756;27;20191;-74
2023/05/14 03:33:50;;;;;;;15.40;10.07;;;10.70;99.90;;;;;;5114683;27;20186;-74
2023/05/14 03:36:15;;;;;;;14.30;11.13;;;10.70;99.90;;;;;;5133036;27;20215;-75
2023/05/14 03:38:41;;;;;;;14.10;11.63;;;10.80;99.90;;;;;;5114688;27;20187;-74
2023/05/14 03:41:07;;;;;;;15.50;12.43;;;10.80;99.90;;;;;;5114504;27;20692;-74
2023/05/14 03:43:33;;;;;;;18.67;13.47;;;10.80;99.90;;;;;;5114369;27;20189;-74
2023/05/14 03:45:58;;;;;;;16.07;12.90;;;10.80;99.90;;;;;;5097761;27;20800;-74
2023/05/14 03:48:24;;;;;;;15.33;12.37;;;10.90;99.90;;;;;;5132901;27;20194;-74
2023/05/14 03:50:50;;;;;;;16.53;11.87;;;10.90;99.90;;;;;;5133068;27;20201;-74
2023/05/14 03:53:15;;;;;;;16.83;12.43;;;10.90;99.90;;;;;;5114228;27;20203;-74
2023/05/14 03:55:41;;;;;;;16.07;12.57;;;10.90;99.90;;;;;;5133077;27;20204;-74
2023/05/14 03:58:12;;;;;;;15.63;12.33;;;10.90;99.90;;;;;;5132730;27;20185;-73
2023/05/14 04:00:39;;;;;;;13.90;11.87;;;11.00;99.90;;;;;;5133073;27;20197;-74
2023/05/14 04:03:05;;;;;;;16.23;12.40;;;10.90;99.90;;;;;;5132792;27;20426;-74
2023/05/14 04:05:31;;;;;;;16.83;11.93;;;11.00;99.90;;;;;;5132832;27;21035;-74
2023/05/14 04:07:57;;;;;;;19.43;12.63;;;11.00;99.90;;;;;;5113906;27;20533;-74
2023/05/14 04:10:22;;;;;;;17.60;13.87;;;11.00;99.90;;;;;;5132558;27;20231;-74
2023/05/14 04:12:48;;;;;;;18.23;13.57;;;10.90;99.90;;;;;;5132876;27;20253;-74
2023/05/14 04:15:13;;;;;;;14.40;12.27;;;11.00;99.90;;;;;;5132687;27;20190;-74
2023/05/14 04:17:39;;;;;;;18.10;13.57;;;10.90;99.90;;;;;;5131421;27;20193;-73
2023/05/14 04:20:06;;;;;;;19.80;13.30;;;11.10;99.90;;;;;;5113761;27;20182;-73
2023/05/14 04:22:31;;;;;;;21.67;15.00;;;11.00;99.90;;;;;;5132224;27;20176;-73
2023/05/14 04:24:57;;;;;;;20.57;14.40;;;11.10;99.90;;;;;;5132353;27;20794;-73
2023/05/14 04:27:22;;;;;;;20.30;15.47;;;11.20;99.90;;;;;;5113602;27;20199;-73
2023/05/14 04:29:49;;;;;;;19.07;14.67;;;11.00;99.90;;;;;;5113358;27;20215;-73
2023/05/14 04:32:16;;;;;;;21.47;15.10;;;11.00;99.90;;;;;;5132189;27;20195;-73
2023/05/14 04:34:42;;;;;;;19.33;13.60;;;11.00;99.90;;;;;;5132242;27;20412;-73
2023/05/14 04:37:07;;;;;;;19.43;14.87;;;11.10;99.90;;;;;;5132200;27;20445;-74
2023/05/14 04:39:33;;;;;;;20.43;15.40;;;11.10;99.90;;;;;;5113996;27;21104;-73
2023/05/14 04:41:59;;;;;;;17.97;15.97;;;11.10;99.90;;;;;;5132061;27;20208;-74
2023/05/14 04:44:25;;;;;;;18.47;15.23;;;11.10;99.90;;;;;;5132317;27;20182;-73
2023/05/14 04:46:50;;;;;;;23.67;16.20;;;11.10;99.90;;;;;;5132429;27;20251;-73
2023/05/14 04:49:16;;;;;;;24.03;16.63;;;11.20;99.90;;;;;;5132344;27;20466;-74
2023/05/14 04:51:42;;;;;;;29.47;18.80;;;11.10;99.90;;;;;;5132493;27;20189;-74
2023/05/14 04:54:07;;;;;;;24.50;18.60;;;11.10;99.90;;;;;;5113851;27;20897;-73
2023/05/14 04:56:33;;;;;;;23.77;18.00;;;11.10;99.90;;;;;;5132482;27;20255;-74
2023/05/14 04:58:58;;;;;;;26.60;18.70;;;11.10;99.90;;;;;;5132302;27;20233;-74
2023/05/14 05:01:24;;;;;;;26.30;17.33;;;11.10;99.90;;;;;;5132402;27;20603;-73
2023/05/14 05:03:50;;;;;;;24.20;18.63;;;11.10;99.90;;;;;;5132134;27;20733;-72
2023/05/14 05:06:15;;;;;;;27.07;18.00;;;11.10;99.90;;;;;;5132355;27;20295;-74
2023/05/14 05:08:41;;;;;;;33.20;19.80;;;11.10;99.90;;;;;;5113655;27;20214;-73
2023/05/14 05:11:06;;;;;;;26.97;18.73;;;11.10;99.90;;;;;;5132102;27;21066;-75
2023/05/14 05:13:32;;;;;;;22.73;16.50;;;11.10;99.90;;;;;;5131990;27;20556;-73
2023/05/14 05:15:58;;;;;;;24.33;17.60;;;11.10;99.90;;;;;;5113144;27;20199;-74
2023/05/14 05:18:23;;;;;;;24.80;17.83;;;11.10;99.90;;;;;;5131290;27;20182;-74
2023/05/14 05:20:49;;;;;;;25.30;19.30;;;11.10;99.90;;;;;;5112775;27;20567;-73
2023/05/14 05:23:14;;;;;;;33.17;21.27;;;11.10;99.90;;;;;;5095416;27;20239;-73
2023/05/14 05:25:40;;;;;;;32.57;20.67;;;11.10;99.90;;;;;;5130704;27;20233;-73
2023/05/14 05:28:06;;;;;;;30.77;20.37;;;11.00;99.90;;;;;;5112067;27;20295;-74
2023/05/14 05:30:31;;;;;;;30.83;19.40;;;11.00;99.90;;;;;;5130942;27;20191;-73
2023/05/14 05:32:57;;;;;;;34.53;19.57;;;11.00;99.90;;;;;;5130824;27;20179;-73
2023/05/14 05:35:23;;;;;;;27.63;18.27;;;10.90;99.90;;;;;;5112096;27;20204;-73
2023/05/14 05:37:48;;;;;;;28.70;18.00;;;11.10;99.90;;;;;;5130945;27;20256;-73
2023/05/14 05:40:14;;;;;;;25.13;17.57;;;10.90;99.90;;;;;;5130723;27;20200;-74
2023/05/14 05:42:40;;;;;;;36.07;20.30;;;10.90;99.90;;;;;;5130380;27;20201;-73
2023/05/14 05:45:06;;;;;;;27.33;19.57;;;11.00;99.90;;;;;;5130545;27;20187;-73
2023/05/14 05:47:32;;;;;;;28.07;18.57;;;11.00;99.90;;;;;;5130427;27;20414;-73
2023/05/14 05:49:58;;;;;;;29.20;19.77;;;11.00;99.90;;;;;;5130428;27;20475;-71
2023/05/14 05:52:24;;;;;;;36.93;19.03;;;11.00;99.90;;;;;;5111819;27;20270;-72
2023/05/14 05:54:50;;;;;;;23.70;17.63;;;11.00;99.90;;;;;;5130284;27;20511;-70
2023/05/14 05:57:15;;;;;;;29.47;20.17;;;11.00;99.90;;;;;;5130303;27;20208;-72
2023/05/14 05:59:41;;;;;;;29.13;18.33;;;11.20;99.90;;;;;;5130352;27;20264;-71
2023/05/14 06:02:06;;;;;;;27.30;19.97;;;11.10;99.90;;;;;;5111710;27;20301;-72
2023/05/14 06:04:32;;;;;;;26.80;19.03;;;11.20;99.90;;;;;;5111692;27;20651;-71
2023/05/14 06:06:58;;;;;;;32.80;21.10;;;11.20;99.90;;;;;;5111533;27;20243;-72
2023/05/14 06:09:23;;;;;;;23.40;17.30;;;11.20;99.90;;;;;;5111664;27;20213;-72
2023/05/14 06:11:49;;;;;;;24.40;16.77;;;11.20;99.90;;;;;;5130148;27;20554;-72
2023/05/14 06:14:14;;;;;;;21.97;16.57;;;11.20;99.90;;;;;;5130059;27;20179;-71
2023/05/14 06:16:40;;;;;;;23.53;16.00;;;11.20;99.90;;;;;;5094497;27;20207;-71
2023/05/14 06:19:07;;;;;;;18.67;14.20;;;11.20;99.90;;;;;;5130016;27;20211;-71
2023/05/14 06:21:33;;;;;;;18.00;14.90;;;11.10;99.90;;;;;;5129920;27;20178;-71
2023/05/14 06:23:58;;;;;;;21.90;15.50;;;11.10;99.90;;;;;;5130046;27;20406;-71
2023/05/14 06:26:25;;;;;;;18.30;13.60;;;11.10;99.90;;;;;;5129898;27;20549;-71
2023/05/14 06:28:50;;;;;;;18.40;13.77;;;11.20;99.90;;;;;;5129834;27;20710;-71
2023/05/14 06:31:17;;;;;;;22.47;14.60;;;11.20;99.90;;;;;;5094102;27;20427;-72
2023/05/14 06:33:43;;;;;;;17.50;13.07;;;11.20;99.90;;;;;;5129832;27;20682;-71
2023/05/14 06:36:08;;;;;;;21.30;13.10;;;11.30;99.90;;;;;;5111173;27;20474;-72
2023/05/14 06:38:34;;;;;;;21.33;15.27;;;11.30;99.90;;;;;;5094049;27;20432;-72
2023/05/14 06:41:00;;;;;;;17.30;12.77;;;11.40;99.90;;;;;;5093757;27;20805;-70
2023/05/14 06:43:25;;;;;;;17.70;13.93;;;11.40;99.90;;;;;;5094289;27;20186;-74
2023/05/14 06:45:51;;;;;;;20.57;14.30;;;11.50;99.90;;;;;;5094355;28;20748;-71
2023/05/14 06:48:18;;;;;;;18.13;13.53;;;11.50;99.90;;;;;;5111068;27;20218;-71
2023/05/14 06:50:44;;;;;;;18.87;13.67;;;11.60;99.90;;;;;;5129372;27;20417;-71
2023/05/14 06:53:10;;;;;;;18.77;13.90;;;11.60;99.90;;;;;;5111055;27;20420;-72
2023/05/14 06:55:35;;;;;;;30.73;14.10;;;11.80;99.90;;;;;;5129382;27;20439;-71
2023/05/14 06:58:01;;;;;;;15.77;13.43;;;11.80;99.90;;;;;;5129950;28;20251;-72
2023/05/14 07:00:27;;;;;;;14.77;12.80;;;11.80;99.90;;;;;;5111781;28;20178;-72
2023/05/14 07:02:53;;;;;;;20.37;14.13;;;11.80;99.90;;;;;;5130190;28;20178;-72
2023/05/14 07:05:18;;;;;;;17.00;13.93;;;11.80;99.90;;;;;;5130176;27;20557;-72
2023/05/14 07:07:44;;;;;;;18.30;14.40;;;11.90;99.90;;;;;;5130173;28;20186;-72
2023/05/14 07:10:10;;;;;;;23.03;15.20;;;11.90;99.90;;;;;;5130212;28;20182;-72
2023/05/14 07:12:35;;;;;;;21.37;14.50;;;11.90;99.90;;;;;;5130210;27;20194;-72
2023/05/14 07:15:01;;;;;;;19.20;14.37;;;12.00;99.90;;;;;;5111650;27;20188;-72
2023/05/14 07:17:26;;;;;;;16.63;13.53;;;12.10;99.90;;;;;;5130072;27;20213;-72
2023/05/14 07:19:54;;;;;;;19.80;14.13;;;12.20;99.90;;;;;;5130143;27;20195;-72
2023/05/14 07:22:20;;;;;;;26.20;14.00;;;12.20;99.90;;;;;;5094457;28;20186;-72
2023/05/14 07:24:46;;;;;;;18.97;14.37;;;12.30;99.90;;;;;;5111304;28;20544;-72
2023/05/14 07:27:11;;;;;;;19.00;14.90;;;12.30;99.90;;;;;;5129452;27;20427;-71
2023/05/14 07:29:37;;;;;;;17.90;15.10;;;12.40;99.90;;;;;;5129312;28;20216;-72
2023/05/14 07:32:03;;;;;;;19.40;15.13;;;12.40;99.90;;;;;;5129160;28;20188;-71
2023/05/14 07:34:29;;;;;;;16.90;13.70;;;12.50;99.90;;;;;;5110980;28;20192;-71
2023/05/14 07:36:54;;;;;;;16.27;14.13;;;12.60;99.90;;;;;;5128971;27;20947;-71
2023/05/14 07:39:20;;;;;;;20.67;14.70;;;12.70;99.90;;;;;;5129231;28;20203;-71
2023/05/14 07:41:46;;;;;;;17.80;14.90;;;12.70;99.90;;;;;;5128868;28;20218;-71
2023/05/14 07:44:12;;;;;;;17.47;14.20;;;12.70;99.90;;;;;;5129007;28;20191;-71
2023/05/14 07:46:37;;;;;;;15.00;12.40;;;12.80;99.90;;;;;;5128844;27;20781;-71
2023/05/14 07:49:03;;;;;;;18.07;14.23;;;12.80;99.90;;;;;;5129002;28;20234;-71
2023/05/14 07:51:29;;;;;;;18.07;14.40;;;12.80;99.90;;;;;;5128964;28;20184;-71
2023/05/14 07:53:55;;;;;;;21.30;14.90;;;12.80;99.90;;;;;;5131207;27;20187;-70
2023/05/14 07:56:23;;;;;;;15.87;13.93;;;12.80;99.90;;;;;;5132898;27;20438;-70
2023/05/14 07:58:50;;;;;;;15.93;13.47;;;12.90;99.90;;;;;;5132629;27;20191;-71
2023/05/14 08:01:16;;;;;;;15.97;13.67;;;13.00;99.90;;;;;;5132606;27;20424;-70
2023/05/14 08:03:41;;;;;;;17.40;14.13;;;13.00;99.90;;;;;;5132580;27;20425;-71
2023/05/14 08:06:07;;;;;;;19.60;13.80;;;13.00;99.90;;;;;;5132447;27;20266;-71
2023/05/14 08:08:32;;;;;;;16.40;14.43;;;13.10;99.90;;;;;;5132605;27;20207;-71
2023/05/14 08:10:58;;;;;;;17.07;13.87;;;13.20;99.90;;;;;;5132368;27;20247;-71
2023/05/14 08:13:24;;;;;;;25.63;14.50;;;13.30;99.90;;;;;;5113953;27;20196;-71
2023/05/14 08:15:50;;;;;;;13.33;11.93;;;13.50;99.90;;;;;;5132293;27;20290;-71
2023/05/14 08:18:15;;;;;;;19.33;14.03;;;13.60;99.90;;;;;;5132157;27;20235;-71
2023/05/14 08:20:41;;;;;;;16.80;12.83;;;13.70;99.90;;;;;;5132141;27;20190;-71
2023/05/14 08:23:08;;;;;;;16.10;13.10;;;13.90;99.90;;;;;;5132299;27;20271;-71
2023/05/14 08:25:33;;;;;;;18.87;12.63;;;14.00;99.90;;;;;;5113799;27;20211;-71
2023/05/14 08:28:00;;;;;;;17.30;11.97;;;14.20;99.90;;;;;;5132074;27;20422;-71
2023/05/14 08:30:25;;;;;;;14.50;12.57;;;14.30;99.90;;;;;;5132064;27;20390;-71
2023/05/14 08:32:51;;;;;;;14.70;12.40;;;14.50;99.90;;;;;;5113359;27;20426;-71
2023/05/14 08:35:17;;;;;;;15.07;12.33;;;14.50;99.90;;;;;;5131872;27;20188;-71
2023/05/14 08:37:44;;;;;;;14.70;12.90;;;14.50;99.90;;;;;;5113324;27;20938;-71
2023/05/14 08:40:11;;;;;;;18.57;12.90;;;14.50;99.90;;;;;;5131969;27;20421;-71
2023/05/14 08:42:41;;;;;;;14.27;12.73;;;14.50;99.90;;;;;;5113647;27;20915;-71
2023/05/14 08:45:32;;;;;;;15.70;12.87;;;14.70;99.90;;;;;;5131751;27;20422;-71
2023/05/14 08:47:59;;;;;;;15.40;12.20;;;14.80;99.90;;;;;;5131885;27;21229;-72
2023/05/14 08:50:26;;;;;;;13.13;11.77;;;14.90;99.90;;;;;;5112972;27;20469;-70
2023/05/14 08:52:52;;;;;;;13.90;12.30;;;14.90;99.90;;;;;;5131809;27;20415;-72
2023/05/14 08:55:18;;;;;;;14.53;12.20;;;14.80;99.90;;;;;;5131667;27;20403;-72
2023/05/14 08:57:45;;;;;;;14.00;12.13;;;14.80;99.90;;;;;;5131949;27;20911;-72
2023/05/14 09:00:11;;;;;;;14.97;12.30;;;14.70;99.90;;;;;;5131859;27;20430;-72
2023/05/14 09:02:39;;;;;;;14.57;12.53;;;14.70;99.90;;;;;;5113572;27;20422;-72
2023/05/14 09:05:06;;;;;;;14.70;12.57;;;14.50;99.90;;;;;;5131486;27;20429;-72
2023/05/14 09:07:32;;;;;;;20.40;13.10;;;14.40;99.90;;;;;;5113516;27;20553;-71
2023/05/14 09:09:58;;;;;;;17.07;13.33;;;14.40;99.90;;;;;;5132134;27;20527;-71
2023/05/14 09:12:24;;;;;;;16.30;13.50;;;14.20;99.90;;;;;;5132142;27;20832;-72
2023/05/14 09:14:50;;;;;;;22.30;13.37;;;14.10;99.90;;;;;;5096497;27;20422;-72
2023/05/14 09:17:17;;;;;;;21.37;12.50;;;14.10;99.90;;;;;;5131826;27;20201;-73
2023/05/14 09:19:46;;;;;;;17.27;14.10;;;14.10;99.90;;;;;;5113504;27;20268;-73
2023/05/14 09:22:14;;;;;;;18.10;13.07;;;14.10;99.90;;;;;;5131951;27;20940;-72
2023/05/14 09:24:40;;;;;;;15.10;13.50;;;14.00;99.90;;;;;;5133868;27;20429;-72
2023/05/14 09:27:07;;;;;;;17.43;13.27;;;14.00;99.90;;;;;;5112797;27;20892;-72
2023/05/14 09:29:33;;;;;;;15.80;13.77;;;13.80;99.90;;;;;;5130853;27;20961;-71
2023/05/14 09:32:04;;;;;;;16.20;12.50;;;13.90;99.90;;;;;;5113711;27;20418;-72
2023/05/14 09:34:32;;;;;;;17.20;13.80;;;13.90;99.90;;;;;;5130337;27;20486;-71
2023/05/14 09:37:03;;;;;;;20.70;13.00;;;14.00;99.90;;;;;;5130004;27;20444;-72
2023/05/14 09:39:30;;;;;;;15.57;13.03;;;14.10;99.90;;;;;;5130147;27;20429;-72
2023/05/14 09:41:55;;;;;;;15.40;12.03;;;14.20;99.90;;;;;;5128982;27;20485;-71
2023/05/14 09:44:22;;;;;;;19.60;12.60;;;14.20;99.90;;;;;;5129687;27;20784;-73
2023/05/14 09:46:48;;;;;;;21.23;12.90;;;14.30;99.90;;;;;;5111378;27;20769;-72
2023/05/14 09:49:14;;;;;;;15.53;13.00;;;14.30;99.90;;;;;;5129722;27;20458;-72
2023/05/14 09:51:40;;;;;;;16.07;13.20;;;14.40;99.90;;;;;;5129231;27;20470;-72
2023/05/14 09:54:06;;;;;;;17.83;12.50;;;14.30;99.90;;;;;;5129292;27;20420;-71
2023/05/14 09:56:33;;;;;;;14.20;11.67;;;14.30;99.90;;;;;;5110145;27;20703;-72
2023/05/14 09:58:59;;;;;;;18.00;12.97;;;14.40;99.90;;;;;;5129290;27;20450;-72
2023/05/14 10:01:27;;;;;;;16.27;12.30;;;14.40;99.90;;;;;;5129250;27;20938;-72
2023/05/14 10:03:53;;;;;;;17.40;13.00;;;14.60;99.90;;;;;;5110612;27;20424;-72
2023/05/14 10:06:22;;;;;;;15.17;12.90;;;14.80;99.90;;;;;;5128893;27;21001;-72
2023/05/14 10:08:51;;;;;;;14.87;11.97;;;14.90;99.90;;;;;;5129158;27;20827;-72
2023/05/14 10:11:26;;;;;;;15.27;12.17;;;15.00;99.90;;;;;;5129170;27;20749;-72
2023/05/14 10:14:02;;;;;;;15.47;12.60;;;15.10;99.90;;;;;;5128879;27;20416;-72
2023/05/14 10:16:32;;;;;;;14.63;12.43;;;15.10;99.90;;;;;;5109452;27;20449;-72
2023/05/14 10:19:06;;;;;;;13.20;11.70;;;15.20;99.90;;;;;;5110921;27;20426;-72
2023/05/14 10:21:35;;;;;;;13.83;10.87;;;15.30;99.90;;;;;;5128774;27;20415;-71
2023/05/14 10:24:03;;;;;;;11.60;9.97;;;15.60;99.90;;;;;;5110110;27;20471;-72
2023/05/14 10:26:29;;;;;;;16.23;9.70;;;15.80;99.90;;;;;;5128443;27;20439;-72
2023/05/14 10:28:55;;;;;;;12.57;9.07;;;15.90;99.90;;;;;;5128379;27;20458;-72
2023/05/14 10:31:47;;;;;;;12.80;9.93;;;16.10;99.90;;;;;;5128315;27;20800;-72
2023/05/14 10:34:31;;;;;;;10.50;7.93;;;16.20;99.90;;;;;;5128249;27;20418;-72
2023/05/14 10:37:01;;;;;;;9.43;7.57;;;16.40;99.90;;;;;;5128645;27;21005;-72
2023/05/14 10:39:50;;;;;;;9.33;8.03;;;16.70;99.90;;;;;;5128744;27;20803;-72
2023/05/14 10:42:16;;;;;;;10.63;7.93;;;17.00;99.90;;;;;;5128810;27;20451;-73
2023/05/14 10:45:07;;;;;;;9.80;7.30;;;17.40;99.90;;;;;;5129037;27;20416;-71
2023/05/14 10:47:37;;;;;;;9.33;6.93;;;17.60;99.90;;;;;;5128322;27;20935;-72
2023/05/14 10:50:05;;;;;;;8.43;7.57;;;17.50;99.90;;;;;;5127901;27;20472;-72
2023/05/14 10:52:31;;;;;;;7.63;6.80;;;17.20;99.90;;;;;;5109315;27;20827;-72
2023/05/14 10:54:58;;;;;;;10.33;8.30;;;16.90;99.90;;;;;;5127872;27;20506;-72
2023/05/14 10:57:26;;;;;;;6.50;5.90;;;16.70;99.90;;;;;;5128010;27;20460;-72
2023/05/14 10:59:54;;;;;;;8.33;7.23;;;16.60;99.90;;;;;;5128074;28;20425;-72
2023/05/14 11:02:37;;;;;;;8.57;7.17;;;16.50;99.90;;;;;;5109530;28;20438;-72
2023/05/14 11:05:12;;;;;;;10.53;7.60;;;16.30;99.90;;;;;;5127800;27;20423;-72
2023/05/14 11:07:39;;;;;;;10.50;7.50;;;16.30;99.90;;;;;;5127942;28;20468;-72
2023/05/14 11:10:07;;;;;;;7.77;7.07;;;16.60;99.90;;;;;;5127446;28;20518;-72
2023/05/14 11:12:35;;;;;;;9.57;7.90;;;16.90;99.90;;;;;;5127322;28;20495;-72
2023/05/14 11:15:02;;;;;;;10.40;7.27;;;17.10;99.90;;;;;;5127630;28;20909;-72
2023/05/14 11:17:30;;;;;;;9.33;6.93;;;17.10;99.90;;;;;;5127774;28;20785;-72
2023/05/14 11:19:57;;;;;;;10.30;9.03;;;17.20;99.90;;;;;;5127764;27;21018;-72
2023/05/14 11:22:23;;;;;;;11.07;9.03;;;16.90;99.90;;;;;;5127688;28;20426;-72
2023/05/14 11:24:49;;;;;;;9.40;8.40;;;16.80;99.90;;;;;;5127850;28;20477;-72
2023/05/14 11:27:16;;;;;;;9.40;8.40;;;16.50;99.90;;;;;;5128837;27;20554;-73
2023/05/14 11:29:47;;;;;;;10.93;7.83;;;16.50;99.90;;;;;;5113060;27;20490;-72
2023/05/14 11:32:13;;;;;;;10.07;8.30;;;16.30;99.90;;;;;;5131654;27;20409;-72
2023/05/14 11:34:40;;;;;;;10.10;8.77;;;16.20;99.90;;;;;;5131847;27;20899;-71
2023/05/14 11:37:07;;;;;;;8.43;7.60;;;16.00;99.90;;;;;;5112878;27;20859;-73
2023/05/14 11:39:36;;;;;;;10.27;8.80;;;15.90;99.90;;;;;;5131400;27;20420;-72
2023/05/14 11:42:03;;;;;;;8.10;7.30;;;15.80;99.90;;;;;;5131300;27;20454;-71
2023/05/14 11:44:29;;;;;;;10.23;7.60;;;15.90;99.90;;;;;;5131706;27;20414;-72
2023/05/14 11:46:58;;;;;;;9.93;7.73;;;15.80;99.90;;;;;;5131407;27;20443;-73
2023/05/14 11:49:24;;;;;;;8.30;7.40;;;15.80;99.90;;;;;;5131334;27;20462;-71
2023/05/14 11:52:15;;;;;;;10.07;7.30;;;15.90;99.90;;;;;;5112679;27;20417;-73
2023/05/14 11:54:42;;;;;;;9.30;8.13;;;16.00;99.90;;;;;;5131371;27;20412;-73
2023/05/14 11:57:12;;;;;;;10.37;8.43;;;16.00;99.90;;;;;;5095441;27;20525;-73
2023/05/14 11:59:38;;;;;;;7.30;6.60;;;16.10;99.90;;;;;;5112689;27;20455;-72
2023/05/14 12:02:08;;;;;;;8.90;7.63;;;16.20;99.90;;;;;;5131331;27;20420;-72
2023/05/14 12:04:34;;;;;;;8.00;7.20;;;16.20;99.90;;;;;;5131161;27;20465;-72
2023/05/14 12:07:08;;;;;;;8.33;7.43;;;16.30;99.90;;;;;;5130980;27;20543;-71
2023/05/14 12:09:38;;;;;;;9.77;8.07;;;16.40;99.90;;;;;;5131084;27;20220;-72
2023/05/14 12:12:11;;;;;;;9.60;8.03;;;16.60;99.90;;;;;;5131437;27;20412;-72
2023/05/14 12:14:38;;;;;;;8.40;6.53;;;16.80;99.90;;;;;;5131221;27;20414;-73
2023/05/14 12:17:16;;;;;;;8.33;7.13;;;16.90;99.90;;;;;;5095715;27;20439;-72
2023/05/14 12:19:44;;;;;;;6.50;5.90;;;17.00;99.90;;;;;;5131551;27;20744;-72
2023/05/14 12:22:10;;;;;;;6.50;5.90;;;17.30;99.90;;;;;;5112371;27;20798;-72
2023/05/14 12:24:37;;;;;;;8.07;6.10;;;17.50;99.90;;;;;;5131116;27;20419;-73
2023/05/14 12:27:04;;;;;;;4.87;4.47;;;17.50;99.90;;;;;;5113081;27;20516;-72
2023/05/14 12:29:30;;;;;;;4.73;4.20;;;17.70;99.90;;;;;;5131424;27;20904;-72